sensor_id;sensor_type;location;lat;lon;timestamp;P1;durP1;ratioP1;P2;durP2;ratioP2
27265;SDS011;14766;51.380;13.762;2024-01-27T00:02:02;8.20;;;1.80;;
27265;SDS011;14766;51.380;13.762;2024-01-27T00:04:29;7.93;;;1.95;;
27265;SDS011;14766;51.380;13.762;2024-01-27T00:06:57;8.90;;;1.77;;
27265;SDS011;14766;51.380;13.762;2024-01-27T00:09:24;8.35;;;1.83;;
27265;SDS011;14766;51.380;13.762;2024-01-27T00:11:51;7.93;;;1.38;;
27265;SDS011;14766;51.380;13.762;2024-01-27T00:14:18;10.68;;;1.98;;
27265;SDS011;14766;51.380;13.762;2024-01-27T00:16:45;11.25;;;2.22;;
27265;SDS011;14766;51.380;13.762;2024-01-27T00:19:12;10.68;;;1.67;;
27265;SDS011;14766;51.380;13.762;2024-01-27T00:21:40;9.55;;;1.77;;
27265;SDS011;14766;51.380;13.762;2024-01-27T00:24:07;8.95;;;1.80;;
27265;SDS011;14766;51.380;13.762;2024-01-27T00:26:34;9.85;;;1.60;;
27265;SDS011;14766;51.380;13.762;2024-01-27T00:29:01;9.52;;;1.63;;
27265;SDS011;14766;51.380;13.762;2024-01-27T00:31:28;10.10;;;2.90;;
27265;SDS011;14766;51.380;13.762;2024-01-27T00:33:55;5.55;;;1.60;;
27265;SDS011;14766;51.380;13.762;2024-01-27T00:36:23;9.80;;;1.63;;
27265;SDS011;14766;51.380;13.762;2024-01-27T00:38:50;5.70;;;1.52;;
27265;SDS011;14766;51.380;13.762;2024-01-27T00:41:18;6.57;;;1.83;;
27265;SDS011;14766;51.380;13.762;2024-01-27T00:43:46;10.45;;;2.05;;
27265;SDS011;14766;51.380;13.762;2024-01-27T00:46:13;10.30;;;1.98;;
27265;SDS011;14766;51.380;13.762;2024-01-27T00:48:40;8.23;;;1.85;;
27265;SDS011;14766;51.380;13.762;2024-01-27T00:51:08;6.03;;;1.80;;
27265;SDS011;14766;51.380;13.762;2024-01-27T00:53:36;8.07;;;1.92;;
27265;SDS011;14766;51.380;13.762;2024-01-27T00:56:03;9.38;;;1.85;;
27265;SDS011;14766;51.380;13.762;2024-01-27T00:58:30;13.75;;;2.13;;
27265;SDS011;14766;51.380;13.762;2024-01-27T01:00:57;13.00;;;1.95;;
27265;SDS011;14766;51.380;13.762;2024-01-27T01:03:25;12.40;;;2.08;;
27265;SDS011;14766;51.380;13.762;2024-01-27T01:05:53;8.18;;;2.40;;
27265;SDS011;14766;51.380;13.762;2024-01-27T01:08:20;11.07;;;2.08;;
27265;SDS011;14766;51.380;13.762;2024-01-27T01:10:47;9.77;;;2.05;;
27265;SDS011;14766;51.380;13.762;2024-01-27T01:13:15;11.70;;;2.63;;
27265;SDS011;14766;51.380;13.762;2024-01-27T01:15:42;12.18;;;2.42;;
27265;SDS011;14766;51.380;13.762;2024-01-27T01:18:09;10.40;;;1.88;;
27265;SDS011;14766;51.380;13.762;2024-01-27T01:20:37;8.80;;;1.95;;
27265;SDS011;14766;51.380;13.762;2024-01-27T01:23:04;8.13;;;1.92;;
27265;SDS011;14766;51.380;13.762;2024-01-27T01:25:31;6.32;;;1.83;;
27265;SDS011;14766;51.380;13.762;2024-01-27T01:27:58;9.68;;;1.90;;
27265;SDS011;14766;51.380;13.762;2024-01-27T01:30:26;12.70;;;2.20;;
27265;SDS011;14766;51.380;13.762;2024-01-27T01:32:53;9.88;;;1.95;;
27265;SDS011;14766;51.380;13.762;2024-01-27T01:35:21;9.07;;;2.30;;
27265;SDS011;14766;51.380;13.762;2024-01-27T01:37:48;8.40;;;2.20;;
27265;SDS011;14766;51.380;13.762;2024-01-27T01:40:16;5.75;;;1.50;;
27265;SDS011;14766;51.380;13.762;2024-01-27T01:42:49;10.18;;;2.10;;
27265;SDS011;14766;51.380;13.762;2024-01-27T01:45:17;13.13;;;2.17;;
27265;SDS011;14766;51.380;13.762;2024-01-27T01:47:44;11.55;;;1.88;;
27265;SDS011;14766;51.380;13.762;2024-01-27T01:50:11;14.43;;;2.10;;
27265;SDS011;14766;51.380;13.762;2024-01-27T01:52:39;11.05;;;2.30;;
27265;SDS011;14766;51.380;13.762;2024-01-27T01:55:06;8.80;;;2.10;;
27265;SDS011;14766;51.380;13.762;2024-01-27T01:57:37;9.60;;;2.30;;
27265;SDS011;14766;51.380;13.762;2024-01-27T02:00:05;12.23;;;2.08;;
27265;SDS011;14766;51.380;13.762;2024-01-27T02:02:37;9.23;;;2.28;;
27265;SDS011;14766;51.380;13.762;2024-01-27T02:05:04;7.00;;;2.75;;
27265;SDS011;14766;51.380;13.762;2024-01-27T02:07:31;12.18;;;2.38;;
27265;SDS011;14766;51.380;13.762;2024-01-27T02:09:59;9.13;;;1.80;;
27265;SDS011;14766;51.380;13.762;2024-01-27T02:12:26;12.68;;;2.17;;
27265;SDS011;14766;51.380;13.762;2024-01-27T02:14:53;9.63;;;2.20;;
27265;SDS011;14766;51.380;13.762;2024-01-27T02:17:20;9.77;;;2.25;;
27265;SDS011;14766;51.380;13.762;2024-01-27T02:19:48;7.13;;;1.92;;
27265;SDS011;14766;51.380;13.762;2024-01-27T02:22:15;9.95;;;2.08;;
27265;SDS011;14766;51.380;13.762;2024-01-27T02:24:42;9.55;;;1.90;;
27265;SDS011;14766;51.380;13.762;2024-01-27T02:27:09;10.65;;;2.08;;
27265;SDS011;14766;51.380;13.762;2024-01-27T02:29:36;9.68;;;2.08;;
27265;SDS011;14766;51.380;13.762;2024-01-27T02:32:03;7.50;;;2.03;;
27265;SDS011;14766;51.380;13.762;2024-01-27T02:34:31;6.53;;;1.70;;
27265;SDS011;14766;51.380;13.762;2024-01-27T02:36:58;11.05;;;1.90;;
27265;SDS011;14766;51.380;13.762;2024-01-27T02:39:25;14.65;;;2.97;;
27265;SDS011;14766;51.380;13.762;2024-01-27T02:41:55;13.48;;;3.08;;
27265;SDS011;14766;51.380;13.762;2024-01-27T02:44:23;9.95;;;2.38;;
27265;SDS011;14766;51.380;13.762;2024-01-27T02:46:50;8.68;;;2.08;;
27265;SDS011;14766;51.380;13.762;2024-01-27T02:49:17;15.20;;;2.28;;
27265;SDS011;14766;51.380;13.762;2024-01-27T02:51:44;8.90;;;1.80;;
27265;SDS011;14766;51.380;13.762;2024-01-27T02:54:11;10.18;;;2.58;;
27265;SDS011;14766;51.380;13.762;2024-01-27T02:56:38;12.18;;;2.42;;
27265;SDS011;14766;51.380;13.762;2024-01-27T02:59:05;10.45;;;1.98;;
27265;SDS011;14766;51.380;13.762;2024-01-27T03:01:33;9.57;;;2.20;;
27265;SDS011;14766;51.380;13.762;2024-01-27T03:04:00;11.00;;;2.40;;
27265;SDS011;14766;51.380;13.762;2024-01-27T03:06:27;10.70;;;2.58;;
27265;SDS011;14766;51.380;13.762;2024-01-27T03:08:54;8.35;;;2.92;;
27265;SDS011;14766;51.380;13.762;2024-01-27T03:11:22;8.95;;;1.77;;
27265;SDS011;14766;51.380;13.762;2024-01-27T03:13:49;9.25;;;2.03;;
27265;SDS011;14766;51.380;13.762;2024-01-27T03:16:16;8.07;;;1.65;;
27265;SDS011;14766;51.380;13.762;2024-01-27T03:18:45;10.93;;;2.22;;
27265;SDS011;14766;51.380;13.762;2024-01-27T03:21:12;6.97;;;2.03;;
27265;SDS011;14766;51.380;13.762;2024-01-27T03:23:40;8.98;;;2.13;;
27265;SDS011;14766;51.380;13.762;2024-01-27T03:26:07;8.70;;;1.88;;
27265;SDS011;14766;51.380;13.762;2024-01-27T03:28:34;6.55;;;1.95;;
27265;SDS011;14766;51.380;13.762;2024-01-27T03:31:01;10.63;;;2.50;;
27265;SDS011;14766;51.380;13.762;2024-01-27T03:33:28;8.68;;;1.95;;
27265;SDS011;14766;51.380;13.762;2024-01-27T03:35:58;9.57;;;2.45;;
27265;SDS011;14766;51.380;13.762;2024-01-27T03:38:25;12.38;;;1.90;;
27265;SDS011;14766;51.380;13.762;2024-01-27T03:40:53;11.85;;;2.92;;
27265;SDS011;14766;51.380;13.762;2024-01-27T03:43:20;6.82;;;2.08;;
27265;SDS011;14766;51.380;13.762;2024-01-27T03:45:49;10.85;;;2.20;;
27265;SDS011;14766;51.380;13.762;2024-01-27T03:48:17;14.07;;;2.92;;
27265;SDS011;14766;51.380;13.762;2024-01-27T03:50:45;8.95;;;2.00;;
27265;SDS011;14766;51.380;13.762;2024-01-27T03:53:12;10.13;;;1.95;;
27265;SDS011;14766;51.380;13.762;2024-01-27T03:55:39;9.15;;;2.00;;
27265;SDS011;14766;51.380;13.762;2024-01-27T03:58:06;15.43;;;2.55;;
27265;SDS011;14766;51.380;13.762;2024-01-27T04:00:33;12.63;;;2.05;;
27265;SDS011;14766;51.380;13.762;2024-01-27T04:03:03;9.15;;;1.98;;
27265;SDS011;14766;51.380;13.762;2024-01-27T04:05:33;10.77;;;2.38;;
27265;SDS011;14766;51.380;13.762;2024-01-27T04:08:00;10.88;;;2.28;;
27265;SDS011;14766;51.380;13.762;2024-01-27T04:10:27;13.55;;;2.83;;
27265;SDS011;14766;51.380;13.762;2024-01-27T04:12:54;11.38;;;2.67;;
27265;SDS011;14766;51.380;13.762;2024-01-27T04:15:22;12.60;;;3.15;;
27265;SDS011;14766;51.380;13.762;2024-01-27T04:17:49;8.63;;;2.33;;
27265;SDS011;14766;51.380;13.762;2024-01-27T04:20:17;11.88;;;2.03;;
27265;SDS011;14766;51.380;13.762;2024-01-27T04:22:44;8.15;;;1.85;;
27265;SDS011;14766;51.380;13.762;2024-01-27T04:25:11;8.52;;;2.22;;
27265;SDS011;14766;51.380;13.762;2024-01-27T04:27:38;11.95;;;2.30;;
27265;SDS011;14766;51.380;13.762;2024-01-27T04:30:07;13.63;;;2.55;;
27265;SDS011;14766;51.380;13.762;2024-01-27T04:32:35;14.13;;;2.50;;
27265;SDS011;14766;51.380;13.762;2024-01-27T04:35:02;9.95;;;2.65;;
27265;SDS011;14766;51.380;13.762;2024-01-27T04:37:30;11.32;;;2.47;;
27265;SDS011;14766;51.380;13.762;2024-01-27T04:39:57;12.07;;;1.83;;
27265;SDS011;14766;51.380;13.762;2024-01-27T04:42:24;10.43;;;2.15;;
27265;SDS011;14766;51.380;13.762;2024-01-27T04:44:52;7.10;;;2.10;;
27265;SDS011;14766;51.380;13.762;2024-01-27T04:47:19;11.20;;;2.15;;
27265;SDS011;14766;51.380;13.762;2024-01-27T04:49:46;9.00;;;1.95;;
27265;SDS011;14766;51.380;13.762;2024-01-27T04:52:13;15.65;;;2.20;;
27265;SDS011;14766;51.380;13.762;2024-01-27T04:54:41;15.85;;;2.00;;
27265;SDS011;14766;51.380;13.762;2024-01-27T04:57:08;9.05;;;2.05;;
27265;SDS011;14766;51.380;13.762;2024-01-27T04:59:36;8.32;;;2.22;;
27265;SDS011;14766;51.380;13.762;2024-01-27T05:02:04;9.68;;;2.13;;
27265;SDS011;14766;51.380;13.762;2024-01-27T05:04:31;12.45;;;2.10;;
27265;SDS011;14766;51.380;13.762;2024-01-27T05:06:59;16.38;;;2.63;;
27265;SDS011;14766;51.380;13.762;2024-01-27T05:09:27;10.98;;;2.38;;
27265;SDS011;14766;51.380;13.762;2024-01-27T05:11:55;10.88;;;2.95;;
27265;SDS011;14766;51.380;13.762;2024-01-27T05:14:22;12.95;;;2.53;;
27265;SDS011;14766;51.380;13.762;2024-01-27T05:16:49;9.30;;;2.28;;
27265;SDS011;14766;51.380;13.762;2024-01-27T05:19:17;9.95;;;2.38;;
27265;SDS011;14766;51.380;13.762;2024-01-27T05:21:44;9.90;;;2.17;;
27265;SDS011;14766;51.380;13.762;2024-01-27T05:24:12;10.07;;;2.72;;
27265;SDS011;14766;51.380;13.762;2024-01-27T05:26:40;11.35;;;2.42;;
27265;SDS011;14766;51.380;13.762;2024-01-27T05:29:07;9.68;;;2.30;;
27265;SDS011;14766;51.380;13.762;2024-01-27T05:31:35;7.57;;;1.75;;
27265;SDS011;14766;51.380;13.762;2024-01-27T05:34:02;11.05;;;2.20;;
27265;SDS011;14766;51.380;13.762;2024-01-27T05:36:29;7.38;;;2.38;;
27265;SDS011;14766;51.380;13.762;2024-01-27T05:38:57;15.52;;;3.60;;
27265;SDS011;14766;51.380;13.762;2024-01-27T05:41:27;13.23;;;3.30;;
27265;SDS011;14766;51.380;13.762;2024-01-27T05:43:56;14.18;;;2.75;;
27265;SDS011;14766;51.380;13.762;2024-01-27T05:46:24;12.38;;;2.50;;
27265;SDS011;14766;51.380;13.762;2024-01-27T05:48:51;10.07;;;2.33;;
27265;SDS011;14766;51.380;13.762;2024-01-27T05:51:21;7.75;;;1.90;;
27265;SDS011;14766;51.380;13.762;2024-01-27T05:53:49;14.05;;;2.58;;
27265;SDS011;14766;51.380;13.762;2024-01-27T05:56:17;13.23;;;2.60;;
27265;SDS011;14766;51.380;13.762;2024-01-27T05:58:47;8.00;;;2.08;;
27265;SDS011;14766;51.380;13.762;2024-01-27T06:01:17;9.25;;;2.42;;
27265;SDS011;14766;51.380;13.762;2024-01-27T06:03:45;9.75;;;2.38;;
27265;SDS011;14766;51.380;13.762;2024-01-27T06:06:12;10.80;;;2.20;;
27265;SDS011;14766;51.380;13.762;2024-01-27T06:08:40;11.05;;;2.15;;
27265;SDS011;14766;51.380;13.762;2024-01-27T06:11:08;13.93;;;2.28;;
27265;SDS011;14766;51.380;13.762;2024-01-27T06:13:36;7.53;;;1.88;;
27265;SDS011;14766;51.380;13.762;2024-01-27T06:16:07;12.75;;;2.90;;
27265;SDS011;14766;51.380;13.762;2024-01-27T06:18:36;10.73;;;2.47;;
27265;SDS011;14766;51.380;13.762;2024-01-27T06:21:05;10.50;;;2.38;;
27265;SDS011;14766;51.380;13.762;2024-01-27T06:23:33;9.07;;;2.45;;
27265;SDS011;14766;51.380;13.762;2024-01-27T06:26:07;10.52;;;2.17;;
27265;SDS011;14766;51.380;13.762;2024-01-27T06:28:35;11.35;;;2.78;;
27265;SDS011;14766;51.380;13.762;2024-01-27T06:31:03;11.57;;;2.38;;
27265;SDS011;14766;51.380;13.762;2024-01-27T06:33:31;11.00;;;2.47;;
27265;SDS011;14766;51.380;13.762;2024-01-27T06:35:58;10.40;;;2.28;;
27265;SDS011;14766;51.380;13.762;2024-01-27T06:38:28;15.05;;;3.42;;
27265;SDS011;14766;51.380;13.762;2024-01-27T06:40:55;14.93;;;2.63;;
27265;SDS011;14766;51.380;13.762;2024-01-27T06:43:23;10.32;;;2.45;;
27265;SDS011;14766;51.380;13.762;2024-01-27T06:45:51;9.50;;;1.80;;
27265;SDS011;14766;51.380;13.762;2024-01-27T06:48:18;6.78;;;2.10;;
27265;SDS011;14766;51.380;13.762;2024-01-27T06:50:46;9.43;;;2.30;;
27265;SDS011;14766;51.380;13.762;2024-01-27T06:53:13;7.47;;;1.90;;
27265;SDS011;14766;51.380;13.762;2024-01-27T06:55:40;13.63;;;2.47;;
27265;SDS011;14766;51.380;13.762;2024-01-27T06:58:09;9.65;;;2.47;;
27265;SDS011;14766;51.380;13.762;2024-01-27T07:00:37;6.55;;;1.88;;
27265;SDS011;14766;51.380;13.762;2024-01-27T07:03:04;11.13;;;2.88;;
27265;SDS011;14766;51.380;13.762;2024-01-27T07:05:33;9.80;;;2.00;;
27265;SDS011;14766;51.380;13.762;2024-01-27T07:08:08;13.20;;;2.33;;
27265;SDS011;14766;51.380;13.762;2024-01-27T07:10:36;8.60;;;2.03;;
27265;SDS011;14766;51.380;13.762;2024-01-27T07:13:03;11.20;;;2.53;;
27265;SDS011;14766;51.380;13.762;2024-01-27T07:15:32;9.48;;;2.40;;
27265;SDS011;14766;51.380;13.762;2024-01-27T07:17:59;12.05;;;2.65;;
27265;SDS011;14766;51.380;13.762;2024-01-27T07:20:27;9.90;;;2.55;;
27265;SDS011;14766;51.380;13.762;2024-01-27T07:22:55;13.38;;;2.45;;
27265;SDS011;14766;51.380;13.762;2024-01-27T07:25:23;10.50;;;2.35;;
27265;SDS011;14766;51.380;13.762;2024-01-27T07:27:50;9.73;;;3.05;;
27265;SDS011;14766;51.380;13.762;2024-01-27T07:30:17;11.52;;;3.42;;
27265;SDS011;14766;51.380;13.762;2024-01-27T07:32:45;9.48;;;2.75;;
27265;SDS011;14766;51.380;13.762;2024-01-27T07:35:12;9.48;;;2.10;;
27265;SDS011;14766;51.380;13.762;2024-01-27T07:37:41;9.40;;;2.15;;
27265;SDS011;14766;51.380;13.762;2024-01-27T07:40:09;12.85;;;2.38;;
27265;SDS011;14766;51.380;13.762;2024-01-27T07:42:37;13.27;;;2.70;;
27265;SDS011;14766;51.380;13.762;2024-01-27T07:45:05;24.92;;;10.98;;
27265;SDS011;14766;51.380;13.762;2024-01-27T07:47:32;9.82;;;3.40;;
27265;SDS011;14766;51.380;13.762;2024-01-27T07:49:59;16.27;;;3.70;;
27265;SDS011;14766;51.380;13.762;2024-01-27T07:52:27;16.05;;;2.97;;
27265;SDS011;14766;51.380;13.762;2024-01-27T07:54:54;15.07;;;2.55;;
27265;SDS011;14766;51.380;13.762;2024-01-27T07:57:21;14.20;;;3.10;;
27265;SDS011;14766;51.380;13.762;2024-01-27T07:59:48;11.60;;;2.63;;
27265;SDS011;14766;51.380;13.762;2024-01-27T08:02:17;10.73;;;3.22;;
27265;SDS011;14766;51.380;13.762;2024-01-27T08:04:44;12.00;;;3.95;;
27265;SDS011;14766;51.380;13.762;2024-01-27T08:07:11;14.02;;;3.38;;
27265;SDS011;14766;51.380;13.762;2024-01-27T08:09:41;13.35;;;3.17;;
27265;SDS011;14766;51.380;13.762;2024-01-27T08:12:08;10.88;;;2.90;;
27265;SDS011;14766;51.380;13.762;2024-01-27T08:14:36;20.00;;;4.35;;
27265;SDS011;14766;51.380;13.762;2024-01-27T08:17:03;20.27;;;5.00;;
27265;SDS011;14766;51.380;13.762;2024-01-27T08:19:31;14.02;;;3.35;;
27265;SDS011;14766;51.380;13.762;2024-01-27T08:21:58;12.82;;;2.92;;
27265;SDS011;14766;51.380;13.762;2024-01-27T08:24:25;13.45;;;3.28;;
27265;SDS011;14766;51.380;13.762;2024-01-27T08:26:52;15.07;;;3.03;;
27265;SDS011;14766;51.380;13.762;2024-01-27T08:29:19;13.65;;;2.97;;
27265;SDS011;14766;51.380;13.762;2024-01-27T08:31:47;16.50;;;3.83;;
27265;SDS011;14766;51.380;13.762;2024-01-27T08:34:14;14.02;;;2.70;;
27265;SDS011;14766;51.380;13.762;2024-01-27T08:36:42;18.10;;;3.53;;
27265;SDS011;14766;51.380;13.762;2024-01-27T08:39:10;12.27;;;3.03;;
27265;SDS011;14766;51.380;13.762;2024-01-27T08:41:39;14.88;;;3.17;;
27265;SDS011;14766;51.380;13.762;2024-01-27T08:44:07;14.20;;;3.60;;
27265;SDS011;14766;51.380;13.762;2024-01-27T08:46:35;17.05;;;3.47;;
27265;SDS011;14766;51.380;13.762;2024-01-27T08:49:02;11.85;;;3.28;;
27265;SDS011;14766;51.380;13.762;2024-01-27T08:51:30;10.38;;;3.58;;
27265;SDS011;14766;51.380;13.762;2024-01-27T08:53:57;11.50;;;3.15;;
27265;SDS011;14766;51.380;13.762;2024-01-27T08:56:24;19.05;;;4.20;;
27265;SDS011;14766;51.380;13.762;2024-01-27T08:58:52;15.88;;;3.85;;
27265;SDS011;14766;51.380;13.762;2024-01-27T09:01:19;22.05;;;3.97;;
27265;SDS011;14766;51.380;13.762;2024-01-27T09:03:46;10.95;;;3.63;;
27265;SDS011;14766;51.380;13.762;2024-01-27T09:06:14;12.52;;;4.43;;
27265;SDS011;14766;51.380;13.762;2024-01-27T09:08:43;17.05;;;4.43;;
27265;SDS011;14766;51.380;13.762;2024-01-27T09:11:12;15.57;;;4.60;;
27265;SDS011;14766;51.380;13.762;2024-01-27T09:13:39;12.23;;;3.95;;
27265;SDS011;14766;51.380;13.762;2024-01-27T09:16:07;17.90;;;5.03;;
27265;SDS011;14766;51.380;13.762;2024-01-27T09:18:39;16.85;;;3.85;;
27265;SDS011;14766;51.380;13.762;2024-01-27T09:21:06;11.80;;;3.78;;
27265;SDS011;14766;51.380;13.762;2024-01-27T09:23:33;16.45;;;6.50;;
27265;SDS011;14766;51.380;13.762;2024-01-27T09:26:00;18.40;;;5.68;;
27265;SDS011;14766;51.380;13.762;2024-01-27T09:28:28;14.40;;;3.83;;
27265;SDS011;14766;51.380;13.762;2024-01-27T09:30:55;15.05;;;4.40;;
27265;SDS011;14766;51.380;13.762;2024-01-27T09:33:23;15.30;;;5.15;;
27265;SDS011;14766;51.380;13.762;2024-01-27T09:35:50;20.58;;;5.68;;
27265;SDS011;14766;51.380;13.762;2024-01-27T09:38:18;20.77;;;5.90;;
27265;SDS011;14766;51.380;13.762;2024-01-27T09:40:45;15.73;;;5.60;;
27265;SDS011;14766;51.380;13.762;2024-01-27T09:43:13;13.52;;;4.57;;
27265;SDS011;14766;51.380;13.762;2024-01-27T09:45:42;15.95;;;5.03;;
27265;SDS011;14766;51.380;13.762;2024-01-27T09:48:10;16.60;;;5.07;;
27265;SDS011;14766;51.380;13.762;2024-01-27T09:50:39;14.18;;;4.28;;
27265;SDS011;14766;51.380;13.762;2024-01-27T09:53:08;15.45;;;4.13;;
27265;SDS011;14766;51.380;13.762;2024-01-27T09:55:37;10.10;;;4.00;;
27265;SDS011;14766;51.380;13.762;2024-01-27T09:58:04;10.70;;;3.85;;
27265;SDS011;14766;51.380;13.762;2024-01-27T10:00:32;17.30;;;5.63;;
27265;SDS011;14766;51.380;13.762;2024-01-27T10:03:02;20.02;;;6.07;;
27265;SDS011;14766;51.380;13.762;2024-01-27T10:05:32;15.40;;;5.25;;
27265;SDS011;14766;51.380;13.762;2024-01-27T10:07:59;14.02;;;4.75;;
27265;SDS011;14766;51.380;13.762;2024-01-27T10:10:27;11.55;;;4.43;;
27265;SDS011;14766;51.380;13.762;2024-01-27T10:12:54;17.10;;;5.72;;
27265;SDS011;14766;51.380;13.762;2024-01-27T10:15:25;13.65;;;4.53;;
27265;SDS011;14766;51.380;13.762;2024-01-27T10:18:04;13.25;;;3.65;;
27265;SDS011;14766;51.380;13.762;2024-01-27T10:20:36;13.05;;;3.53;;
27265;SDS011;14766;51.380;13.762;2024-01-27T10:23:10;10.80;;;3.53;;
27265;SDS011;14766;51.380;13.762;2024-01-27T10:25:39;13.57;;;3.72;;
27265;SDS011;14766;51.380;13.762;2024-01-27T10:28:07;14.43;;;3.78;;
27265;SDS011;14766;51.380;13.762;2024-01-27T10:30:35;11.27;;;4.15;;
27265;SDS011;14766;51.380;13.762;2024-01-27T10:33:03;15.80;;;4.63;;
27265;SDS011;14766;51.380;13.762;2024-01-27T10:35:30;15.60;;;4.47;;
27265;SDS011;14766;51.380;13.762;2024-01-27T10:37:58;17.30;;;4.32;;
27265;SDS011;14766;51.380;13.762;2024-01-27T10:40:26;24.70;;;5.55;;
27265;SDS011;14766;51.380;13.762;2024-01-27T10:45:26;19.23;;;4.55;;
27265;SDS011;14766;51.380;13.762;2024-01-27T10:47:58;18.48;;;4.90;;
27265;SDS011;14766;51.380;13.762;2024-01-27T10:50:28;16.40;;;4.35;;
27265;SDS011;14766;51.380;13.762;2024-01-27T10:52:57;17.20;;;3.60;;
27265;SDS011;14766;51.380;13.762;2024-01-27T10:55:27;16.58;;;3.20;;
27265;SDS011;14766;51.380;13.762;2024-01-27T10:57:54;14.40;;;4.30;;
27265;SDS011;14766;51.380;13.762;2024-01-27T11:00:25;13.82;;;3.80;;
27265;SDS011;14766;51.380;13.762;2024-01-27T11:02:53;14.73;;;3.60;;
27265;SDS011;14766;51.380;13.762;2024-01-27T11:05:22;15.93;;;4.75;;
27265;SDS011;14766;51.380;13.762;2024-01-27T11:07:51;17.25;;;6.13;;
27265;SDS011;14766;51.380;13.762;2024-01-27T11:10:18;15.00;;;5.50;;
27265;SDS011;14766;51.380;13.762;2024-01-27T11:12:47;15.68;;;5.18;;
27265;SDS011;14766;51.380;13.762;2024-01-27T11:15:15;17.40;;;4.60;;
27265;SDS011;14766;51.380;13.762;2024-01-27T11:17:42;11.52;;;4.43;;
27265;SDS011;14766;51.380;13.762;2024-01-27T11:20:11;14.00;;;4.72;;
27265;SDS011;14766;51.380;13.762;2024-01-27T11:22:39;14.18;;;4.72;;
27265;SDS011;14766;51.380;13.762;2024-01-27T11:27:40;15.95;;;4.30;;
27265;SDS011;14766;51.380;13.762;2024-01-27T11:30:24;17.20;;;4.60;;
27265;SDS011;14766;51.380;13.762;2024-01-27T11:32:54;15.23;;;4.88;;
27265;SDS011;14766;51.380;13.762;2024-01-27T11:35:27;15.38;;;5.00;;
27265;SDS011;14766;51.380;13.762;2024-01-27T11:37:55;18.60;;;5.57;;
27265;SDS011;14766;51.380;13.762;2024-01-27T11:40:22;15.90;;;4.70;;
27265;SDS011;14766;51.380;13.762;2024-01-27T11:42:59;19.48;;;4.80;;
27265;SDS011;14766;51.380;13.762;2024-01-27T11:45:32;12.13;;;5.28;;
27265;SDS011;14766;51.380;13.762;2024-01-27T11:48:00;17.33;;;4.90;;
27265;SDS011;14766;51.380;13.762;2024-01-27T11:50:27;19.17;;;5.18;;
27265;SDS011;14766;51.380;13.762;2024-01-27T11:52:54;16.98;;;4.00;;
27265;SDS011;14766;51.380;13.762;2024-01-27T11:55:23;17.52;;;5.18;;
27265;SDS011;14766;51.380;13.762;2024-01-27T11:57:50;15.15;;;4.85;;
27265;SDS011;14766;51.380;13.762;2024-01-27T12:00:17;14.80;;;4.80;;
27265;SDS011;14766;51.380;13.762;2024-01-27T12:02:45;12.60;;;4.40;;
27265;SDS011;14766;51.380;13.762;2024-01-27T12:05:17;16.65;;;4.93;;
27265;SDS011;14766;51.380;13.762;2024-01-27T12:07:44;14.38;;;3.72;;
27265;SDS011;14766;51.380;13.762;2024-01-27T12:10:12;17.65;;;4.10;;
27265;SDS011;14766;51.380;13.762;2024-01-27T12:12:39;17.73;;;4.47;;
27265;SDS011;14766;51.380;13.762;2024-01-27T12:15:07;15.18;;;3.45;;
27265;SDS011;14766;51.380;13.762;2024-01-27T12:17:34;18.70;;;4.10;;
27265;SDS011;14766;51.380;13.762;2024-01-27T12:20:01;14.02;;;4.13;;
27265;SDS011;14766;51.380;13.762;2024-01-27T12:22:41;12.55;;;3.13;;
27265;SDS011;14766;51.380;13.762;2024-01-27T12:25:09;10.80;;;3.67;;
27265;SDS011;14766;51.380;13.762;2024-01-27T12:27:42;16.33;;;4.15;;
27265;SDS011;14766;51.380;13.762;2024-01-27T12:30:10;11.88;;;3.70;;
27265;SDS011;14766;51.380;13.762;2024-01-27T12:32:38;11.45;;;3.60;;
27265;SDS011;14766;51.380;13.762;2024-01-27T12:35:05;13.90;;;3.05;;
27265;SDS011;14766;51.380;13.762;2024-01-27T12:37:35;16.10;;;3.88;;
27265;SDS011;14766;51.380;13.762;2024-01-27T12:40:02;13.00;;;3.63;;
27265;SDS011;14766;51.380;13.762;2024-01-27T12:42:50;12.77;;;3.05;;
27265;SDS011;14766;51.380;13.762;2024-01-27T12:45:17;11.73;;;3.63;;
27265;SDS011;14766;51.380;13.762;2024-01-27T12:47:45;18.55;;;3.30;;
27265;SDS011;14766;51.380;13.762;2024-01-27T12:50:12;15.32;;;3.88;;
27265;SDS011;14766;51.380;13.762;2024-01-27T12:52:39;11.80;;;3.78;;
27265;SDS011;14766;51.380;13.762;2024-01-27T12:55:08;15.75;;;3.97;;
27265;SDS011;14766;51.380;13.762;2024-01-27T12:57:36;13.88;;;3.05;;
27265;SDS011;14766;51.380;13.762;2024-01-27T13:00:03;14.48;;;4.03;;
27265;SDS011;14766;51.380;13.762;2024-01-27T13:02:37;10.68;;;3.28;;
27265;SDS011;14766;51.380;13.762;2024-01-27T13:05:04;15.48;;;4.55;;
27265;SDS011;14766;51.380;13.762;2024-01-27T13:07:31;9.13;;;2.95;;
27265;SDS011;14766;51.380;13.762;2024-01-27T13:09:59;10.48;;;3.05;;
27265;SDS011;14766;51.380;13.762;2024-01-27T13:12:26;9.93;;;3.33;;
27265;SDS011;14766;51.380;13.762;2024-01-27T13:14:53;9.55;;;2.67;;
27265;SDS011;14766;51.380;13.762;2024-01-27T13:17:22;7.90;;;2.50;;
27265;SDS011;14766;51.380;13.762;2024-01-27T13:19:49;16.75;;;5.53;;
27265;SDS011;14766;51.380;13.762;2024-01-27T13:22:17;11.25;;;4.07;;
27265;SDS011;14766;51.380;13.762;2024-01-27T13:24:50;13.55;;;3.85;;
27265;SDS011;14766;51.380;13.762;2024-01-27T13:27:18;9.68;;;3.00;;
27265;SDS011;14766;51.380;13.762;2024-01-27T13:29:46;13.85;;;3.70;;
27265;SDS011;14766;51.380;13.762;2024-01-27T13:32:13;10.93;;;3.10;;
27265;SDS011;14766;51.380;13.762;2024-01-27T13:34:41;9.68;;;3.10;;
27265;SDS011;14766;51.380;13.762;2024-01-27T13:37:09;11.50;;;3.05;;
27265;SDS011;14766;51.380;13.762;2024-01-27T13:39:37;12.63;;;3.90;;
27265;SDS011;14766;51.380;13.762;2024-01-27T13:42:04;18.55;;;3.47;;
27265;SDS011;14766;51.380;13.762;2024-01-27T13:44:33;8.10;;;3.00;;
27265;SDS011;14766;51.380;13.762;2024-01-27T13:47:03;10.60;;;3.05;;
27265;SDS011;14766;51.380;13.762;2024-01-27T13:49:33;14.23;;;3.05;;
27265;SDS011;14766;51.380;13.762;2024-01-27T13:52:01;8.90;;;2.80;;
27265;SDS011;14766;51.380;13.762;2024-01-27T13:54:31;9.52;;;2.90;;
27265;SDS011;14766;51.380;13.762;2024-01-27T13:57:04;12.65;;;3.42;;
27265;SDS011;14766;51.380;13.762;2024-01-27T13:59:31;15.77;;;4.72;;
27265;SDS011;14766;51.380;13.762;2024-01-27T14:02:00;14.98;;;4.00;;
27265;SDS011;14766;51.380;13.762;2024-01-27T14:04:27;11.38;;;2.95;;
27265;SDS011;14766;51.380;13.762;2024-01-27T14:06:54;11.55;;;3.28;;
27265;SDS011;14766;51.380;13.762;2024-01-27T14:09:23;11.52;;;2.80;;
27265;SDS011;14766;51.380;13.762;2024-01-27T14:11:50;9.48;;;2.80;;
27265;SDS011;14766;51.380;13.762;2024-01-27T14:14:19;13.15;;;2.88;;
27265;SDS011;14766;51.380;13.762;2024-01-27T14:16:46;9.32;;;3.17;;
27265;SDS011;14766;51.380;13.762;2024-01-27T14:19:13;15.05;;;4.00;;
27265;SDS011;14766;51.380;13.762;2024-01-27T14:21:41;14.27;;;3.45;;
27265;SDS011;14766;51.380;13.762;2024-01-27T14:24:08;11.48;;;3.03;;
27265;SDS011;14766;51.380;13.762;2024-01-27T14:26:36;9.95;;;3.17;;
27265;SDS011;14766;51.380;13.762;2024-01-27T14:29:04;13.70;;;3.35;;
27265;SDS011;14766;51.380;13.762;2024-01-27T14:31:32;9.10;;;3.33;;
27265;SDS011;14766;51.380;13.762;2024-01-27T14:34:00;11.60;;;4.00;;
27265;SDS011;14766;51.380;13.762;2024-01-27T14:36:28;13.85;;;4.43;;